Hamada, Japan

1:56 PM JST on December 10, 2016 (GMT +0900)
Iwami | | Change Station

Elev 177 ft 34.68 °N, 131.79 °E | Updated 56 minutes ago

Mostly Cloudy
Mostly Cloudy
52 °F
Feels Like 52 °F
N
5
Wind Variable Wind from NW

Today
High -- | Low -- °F
--% Chance of Precip.
Yesterday
High -- | Low -- °F
Precip. -- in
Pressure 30.12 in
Visibility 6.2 miles
Clouds Few 2500 ft
Scattered Clouds 3000 ft
Mostly Cloudy 5000 ft
Dew Point 39 °F
Humidity 62%
Rainfall 0.00 in
Snow Depth Not available.
7:08 AM 5:00 PM
Waxing Gibbous, 80% visible
METAR RJOW 100400Z 32004KT 240V050 9999 FEW025 SCT030 BKN050 11/04 Q1020
Pressure 30.12 in
Visibility 6.2 miles
Clouds Few 2500 ft
Scattered Clouds 3000 ft
Mostly Cloudy 5000 ft
Dew Point 39 °F
Humidity 62%
Rainfall 0.00 in
Snow Depth Not available.
7:08 AM 5:00 PM
Waxing Gibbous, 80% visible
METAR RJOW 100400Z 32004KT 240V050 9999 FEW025 SCT030 BKN050 11/04 Q1020

10-Day Weather Forecast

No radar image for this location.
×

Almanac

Astronomy

Dec. 10, 2016 Rise Set
Actual Time
Civil Twilight
Nautical Twilight
Astronomical Twilight
Moon
Length of Visible Light
Length of Day
Tomorrow will be .
, % of the Moon is Illuminated

Today's Extremes

Country Highs Country Lows

Community

WunderPhotos

Upload Photos

1,956,529 photos uploaded!

WunderBlog® & News

Nearby

Air Quality

  Air Quality AQ Index Pollutant
Not available.

Snow Depth

Station Depth Elevation

Earthquake Activity

City Distance Mag. Time & Date
Minimum magnitude displayed is 2.5.

Coastal Water Temperatures

Place Temperature

Stations

Nearby Weather Stations

Station Location Temp. Windchill Dew Point Humidity Wind Precip. Elev Updated Type